• Join FlightAware (Why Join?)
  • Login
  • US Flag GB Flag 
03:16 EDT


 

Airport Tracker/Info


-or-


 

Live Flight TrackerFlight Track Log ✈ N400PU ✈ 06-Apr-2013 ✈ KLNK - KLAF

Flight Track Log - Related Links

Times and Time Zones

All times are in EDT time to prevent confusion due to time zone crossing. See the N400PU flight status page for this flight to view local times or setup timezone preferences in your user account.

Time Position Orientation Groundspeed Altitude Reporting Facility
EDT Latitude Longitude Course Direction KTS MPH feet Rate Location/Type
13:31 40.9106 -96.7200 31° Northeast 221 254 5,400  Level Minneapolis Center
13:32 40.9031 -96.6244 96° East 257 296 8,000 2,580 Climbing Minneapolis Center
13:33 40.8931 -96.5219 97° East 279 321 10,700 2,520 Climbing Minneapolis Center
13:34 40.8808 -96.4161 99° East 289 333 13,200 2,520 Climbing Minneapolis Center
13:35 40.8672 -96.2806 98° East 306 352 15,900 2,520 Climbing Minneapolis Center
13:36 40.8547 -96.1606 98° East 318 366 18,400 2,340 Climbing Minneapolis Center
13:37 40.8406 -96.0408 99° East 326 375 20,700 2,040 Climbing Minneapolis Center
13:38 40.8278 -95.9200 98° East 331 381 22,600 1,800 Climbing Minneapolis Center
13:39 40.8142 -95.7956 98° East 340 391 24,400 1,800 Climbing Minneapolis Center
13:40 40.8003 -95.6703 98° East 346 398 26,300 1,860 Climbing Minneapolis Center
13:41 40.7842 -95.5178 98° East 351 404 28,300 1,500 Climbing Minneapolis Center
13:42 40.7692 -95.3872 99° East 358 412 29,500 1,140 Climbing Minneapolis Center
13:43 40.7519 -95.2531 100° East 368 423 30,700 1,080 Climbing Minneapolis Center
13:44 40.7367 -95.1139 98° East 380 437 31,800 960 Climbing Minneapolis Center
13:45 40.7194 -94.9722 99° East 390 449 32,700 840 Climbing Minneapolis Center
13:46 40.7025 -94.8264 99° East 400 460 33,600 900 Climbing Minneapolis Center
13:47 40.6856 -94.6792 99° East 406 467 34,600 1,020 Climbing Minneapolis Center
13:48 40.6642 -94.5122 100° East 407 468 35,700 780 Climbing Minneapolis Center
13:49 40.6472 -94.3661 99° East 407 468 36,300 540 Climbing Minneapolis Center
13:50 40.6286 -94.2186 99° East 410 472 36,900 600 Climbing Minneapolis Center
13:51 40.6100 -94.0711 99° East 412 474 37,600 600 Climbing Minneapolis Center
13:52 40.5942 -93.9231 98° East 412 474 38,200 600 Climbing Minneapolis Center
13:53 40.5967 -93.7733 89° East 410 472 38,900 360 Climbing Minneapolis Center
13:54 40.5972 -93.5950 90° East 411 473 39,000  Climbing Minneapolis Center
13:55 40.5964 -93.4408 90° East 419 482 39,000  Level Minneapolis Center
13:56 40.5950 -93.3122 91° East 430 495 39,000  Level Kansas City Center
13:57 40.5950 -93.1506 90° East 440 506 39,000  Level Kansas City Center
13:58 40.5944 -92.9906 90° East 446 513 39,000  Level Kansas City Center
13:59 40.5939 -92.8047 90° East 453 521 39,000  Level Kansas City Center
14:00 40.5936 -92.6525 90° East 459 528 39,000  Level Kansas City Center
14:01 40.5925 -92.4803 90° East 464 534 39,000  Level Kansas City Center
14:02 40.5919 -92.3089 90° East 466 536 39,000  Level Kansas City Center
14:03 40.5889 -92.1025 91° East 469 540 39,000  Level Kansas City Center
14:04 40.5867 -91.9308 91° East 471 542 39,000  Level Kansas City Center
14:05 40.5847 -91.7581 91° East 473 544 39,000  Level Kansas City Center
14:06 40.5814 -91.5869 91° East 472 543 39,000  Level Kansas City Center
14:07 40.5808 -91.4842 90° East 473 544 39,000  Level Chicago Center
14:08 40.5775 -91.3103 91° East 477 549 39,000  Level Chicago Center
14:09 40.5739 -91.1369 92° East 475 547 39,000  Level Chicago Center
14:10 40.5697 -90.9636 92° East 476 548 39,000 -360 Level Chicago Center
14:11 40.5664 -90.7903 91° East 474 545 38,300 -1,380 Descending Chicago Center
14:12 40.5622 -90.6161 92° East 478 550 36,200 -1,620 Descending Chicago Center
14:13 40.5567 -90.4131 92° East 464 534 35,000 -600 Descending Chicago Center
14:14 40.5522 -90.2464 92° East 459 528 35,000  Level Chicago Center
14:15 40.5469 -90.0886 92° East 465 535 35,000  Level Chicago Center
14:16 40.5417 -89.9192 92° East 466 536 35,000  Level Chicago Center
14:17 40.5344 -89.7192 93° East 461 531 35,000  Level Chicago Center
14:18 40.5300 -89.5469 92° East 462 532 35,000  Level Chicago Center
14:19 40.5236 -89.3814 93° East 458 527 35,000 -360 Level Chicago Center
14:20 40.5178 -89.2147 93° East 459 528 34,300 -1,620 Descending Chicago Center
14:21 40.5114 -89.0492 93° East 457 526 31,800 -2,400 Descending Chicago Center
14:22 40.5042 -88.8819 93° East 459 528 29,400 -2,520 Descending Chicago Center
14:23 40.4969 -88.6861 93° East 466 536 26,700 -2,520 Descending Chicago Center
14:24 40.4900 -88.5158 93° East 470 541 24,300 -1,320 Descending Chicago Center
14:25 40.4831 -88.3456 93° East 470 541 24,000 -600 Descending Chicago Center
14:27 40.4764 -88.1758 93° East 471 542 23,100 -1,740 Descending Chicago Center
14:28 40.4686 -88.0075 93° East 468 539 20,500 -3,120 Descending Chicago Center
14:29 40.4600 -87.8147 93° East 445 512 16,800 -3,420 Descending Chicago Center
14:30 40.4528 -87.6678 94° East 413 475 13,600 -3,120 Descending Chicago Center
14:30 40.4478 -87.6025 96° East 393 452 12,200 -2,760 Descending Chicago Center
14:31 40.4461 -87.5347 92° East 373 429 10,800 -1,800 Descending Chicago Center
14:32 40.4397 -87.4108 94° East 310 357 9,400 -1,800 Descending Chicago Center
14:33 40.4347 -87.3031 93° East 294 338 7,200 -2,220 Descending Chicago Center
14:34 40.4475 -87.2003 81° East 285 328 4,900 -1,980 Descending Chicago Center
14:35 40.4325 -87.1169 103° East 251 289 3,200 -1,380 Descending Chicago Center
14:36 40.4233 -87.0408 99° East 176 203 2,000 -900 Descending Chicago Center
14:37 40.4169 -86.9911 100° East 131 151 1,300 -720 Descending Chicago Center
14:39 40.4000 -86.9333 90° East  Level FlightAware Approximate
14:46 40.4123 -86.9369 90° East  Level Estimated
14:47 40.4123 -86.9369 90° East  Level Estimated